• Join FlightAware (Why Join?)
  • Login
  • US Flag 
05:05PM EDT


 

Airport Tracker/Info


-or-


 

Live Flight TrackerFlight Track Log ✈ AAY846 ✈ 10-Jan-2014 ✈ KPIE - KPIA

Flight Track Log - Related Links

Times and Time Zones

All times are in EST time to prevent confusion due to time zone crossing. See the AAY846 flight status page for this flight to view local times or setup timezone preferences in your user account.

Time Position Orientation Groundspeed Altitude Reporting Facility
EST Latitude Longitude Course Direction KTS MPH feet Rate Location/Type
08:08AM 27.9333 -82.7000 16° North 183 211 600  Level Tampa TRACON
08:09AM 27.9833 -82.6833 16° North 196 226 2,700 1,680 Climbing Tampa TRACON
08:10AM 28.0333 -82.6500 30° Northeast 237 273 3,800 1,680 Climbing Tampa TRACON
08:11AM 28.1000 -82.6333 12° North 261 300 5,800 2,340 Climbing Tampa TRACON
08:12AM 28.1667 -82.6333 360° North 269 310 8,500 1,920 Climbing Tampa TRACON
08:13AM 28.2936 -82.6381 358° North 300 345 11,100 1,320 Climbing Jacksonville Center
08:14AM 28.3897 -82.6567 350° North 322 371 12,200 1,560 Climbing Jacksonville Center
08:15AM 28.5003 -82.6778 350° North 361 415 14,300 2,040 Climbing Jacksonville Center
08:16AM 28.6006 -82.7247 338° Northwest 380 437 16,300 1,800 Climbing Jacksonville Center
08:17AM 28.7133 -82.7767 338° Northwest 405 466 18,000 1,860 Climbing Jacksonville Center
08:18AM 28.8219 -82.8308 336° Northwest 419 482 20,100 1,800 Climbing Jacksonville Center
08:19AM 28.9325 -82.8831 338° Northwest 424 488 21,600 1,800 Climbing Jacksonville Center
08:20AM 29.0556 -82.9378 339° North 429 494 23,700 1,740 Climbing Jacksonville Center
08:21AM 29.1683 -82.9878 339° North 429 494 25,100 1,380 Climbing Jacksonville Center
08:22AM 29.2831 -83.0378 339° North 434 499 26,500 1,500 Climbing Jacksonville Center
08:23AM 29.3917 -83.0903 337° Northwest 429 494 28,100 1,500 Climbing Jacksonville Center
08:24AM 29.4917 -83.1431 335° Northwest 428 493 29,500 900 Climbing Jacksonville Center
08:25AM 29.6003 -83.1958 337° Northwest 428 493 30,000 240 Climbing Jacksonville Center
08:26AM 29.7128 -83.2514 337° Northwest 428 493 30,000 -60 Level Jacksonville Center
08:27AM 29.8336 -83.3117 337° Northwest 433 498 29,900 -60 Descending Jacksonville Center
08:28AM 29.9442 -83.3647 337° Northwest 433 498 29,900  Level Jacksonville Center
08:29AM 30.0544 -83.4181 337° Northwest 433 498 29,900  Level Jacksonville Center
08:30AM 30.1628 -83.4717 337° Northwest 428 493 29,900  Level Jacksonville Center
08:31AM 30.2733 -83.5275 336° Northwest 428 493 29,900  Level Jacksonville Center
08:32AM 30.3775 -83.5789 337° Northwest 417 480 30,000  Climbing Jacksonville Center
08:33AM 30.4836 -83.6325 336° Northwest 417 480 30,000  Level Jacksonville Center
08:34AM 30.5794 -83.6839 335° Northwest 417 480 30,000  Level Jacksonville Center
08:35AM 30.6875 -83.7356 338° Northwest 422 486 30,000  Level Jacksonville Center
08:36AM 30.7958 -83.7922 336° Northwest 422 486 30,000  Level Jacksonville Center
08:37AM 30.8997 -83.8464 336° Northwest 417 480 30,000  Level Jacksonville Center
08:38AM 31.0081 -83.8986 338° Northwest 417 480 30,000  Level Jacksonville Center
08:39AM 31.1139 -83.9578 334° Northwest 417 480 30,000  Level Jacksonville Center
08:40AM 31.2325 -84.0150 338° Northwest 422 486 30,000  Level Jacksonville Center
08:41AM 31.3406 -84.0722 336° Northwest 422 486 30,000  Level Jacksonville Center
08:44AM 31.5544 -84.1850 336° Northwest 422 486 30,000  Level Atlanta Center
08:45AM 31.6608 -84.2414 336° Northwest 422 486 30,000  Level Atlanta Center
08:46AM 31.7692 -84.2953 337° Northwest 422 486 30,000  Level Atlanta Center
08:47AM 31.8778 -84.3519 336° Northwest 422 486 30,000  Level Atlanta Center
08:48AM 31.9839 -84.4086 336° Northwest 422 486 30,000  Level Atlanta Center
08:49AM 32.0922 -84.4631 337° Northwest 422 486 30,000  Level Atlanta Center
08:50AM 32.1986 -84.5225 335° Northwest 422 486 30,000  Level Atlanta Center
08:51AM 32.3047 -84.5769 337° Northwest 422 486 30,000  Level Atlanta Center
08:52AM 32.4153 -84.6342 336° Northwest 422 486 30,000  Level Atlanta Center
08:53AM 32.5233 -84.6917 336° Northwest 422 486 30,000  Level Atlanta Center
08:54AM 32.6317 -84.7517 335° Northwest 422 486 30,000  Level Atlanta Center
08:55AM 32.7481 -84.8144 336° Northwest 422 486 30,000  Level Atlanta Center
08:56AM 32.8500 -84.8722 335° Northwest 429 494 30,000  Level Atlanta Center
08:57AM 32.9603 -84.9300 336° Northwest 429 494 30,000  Level Atlanta Center
08:58AM 33.0642 -84.9858 336° Northwest 416 479 30,000  Level Atlanta Center
08:59AM 33.1722 -85.0439 336° Northwest 416 479 30,000  Level Atlanta Center
09:00AM 33.2908 -85.1050 337° Northwest 423 487 30,000  Level Atlanta Center
09:01AM 33.3989 -85.1636 336° Northwest 423 487 30,000  Level Atlanta Center
09:02AM 33.5069 -85.2172 338° Northwest 423 487 30,000  Level Atlanta Center
09:03AM 33.6147 -85.2786 335° Northwest 423 487 30,000  Level Atlanta Center
09:04AM 33.7247 -85.3375 336° Northwest 423 487 30,000  Level Atlanta Center
09:05AM 33.8347 -85.3992 335° Northwest 423 487 30,000  Level Atlanta Center
09:06AM 33.9489 -85.4561 338° Northwest 429 494 30,000  Level Atlanta Center
09:07AM 34.0442 -85.5106 335° Northwest 429 494 30,000  Level Atlanta Center
09:08AM 34.1542 -85.5725 335° Northwest 429 494 30,000  Level Atlanta Center
09:09AM 34.2661 -85.6300 337° Northwest 434 499 30,000  Level Atlanta Center
09:10AM 34.3758 -85.6922 335° Northwest 434 499 30,000  Level Atlanta Center
09:11AM 34.4919 -85.7575 335° Northwest 429 494 30,000  Level Atlanta Center
09:12AM 34.6017 -85.8178 336° Northwest 429 494 30,000  Level Atlanta Center
09:13AM 34.7011 -85.8706 336° Northwest 424 488 30,000  Level Atlanta Center
09:14AM 34.8086 -85.9311 335° Northwest 424 488 30,000  Level Atlanta Center
09:15AM 34.9264 -85.9994 335° Northwest 424 488 30,000  Level Atlanta Center
09:16AM 35.0342 -86.0606 335° Northwest 424 488 30,000  Level Atlanta Center
09:17AM 35.1414 -86.1242 334° Northwest 424 488 30,000  Level Atlanta Center
09:18AM 35.3336 -86.2300 336° Northwest 432 497 30,000  Level Memphis Center
09:19AM 35.4433 -86.2928 335° Northwest 431 496 30,000  Level Memphis Center
09:20AM 35.5522 -86.3567 334° Northwest 430 495 30,000  Level Memphis Center
09:21AM 35.6617 -86.4197 335° Northwest 431 496 30,000  Level Memphis Center
09:22AM 35.7717 -86.4831 335° Northwest 432 497 30,000  Level Memphis Center
09:23AM 35.8806 -86.5456 335° Northwest 430 495 30,000  Level Memphis Center
09:24AM 35.9900 -86.6089 335° Northwest 429 494 30,000  Level Memphis Center
09:26AM 36.1164 -86.6822 335° Northwest 427 491 30,000  Level Memphis Center
09:27AM 36.2233 -86.7436 335° Northwest 424 488 30,000  Level Memphis Center
09:28AM 36.3311 -86.8044 336° Northwest 427 491 30,000  Level Memphis Center
09:29AM 36.4347 -86.8653 335° Northwest 428 493 30,000  Level Memphis Center
09:30AM 36.5414 -86.9278 335° Northwest 424 488 30,000  Level Memphis Center
09:31AM 36.6669 -87.0008 335° Northwest 423 487 30,000  Level Memphis Center
09:32AM 36.7739 -87.0644 335° Northwest 421 484 30,000  Level Memphis Center
09:33AM 36.8814 -87.1286 334° Northwest 423 487 30,000  Level Memphis Center
09:34AM 36.9889 -87.1922 335° Northwest 423 487 30,000  Level Memphis Center
09:35AM 37.0972 -87.2567 335° Northwest 426 490 30,000  Level Memphis Center
09:35AM 37.1519 -87.2875 336° Northwest 427 491 30,000  Level Indianapolis Center
09:36AM 37.2603 -87.3522 335° Northwest 428 493 30,000  Level Indianapolis Center
09:37AM 37.3697 -87.4153 335° Northwest 428 493 30,000  Level Indianapolis Center
09:38AM 37.4786 -87.4828 334° Northwest 431 496 30,000  Level Indianapolis Center
09:39AM 37.6044 -87.5644 333° Northwest 433 498 30,000  Level Indianapolis Center
09:40AM 37.7136 -87.6300 335° Northwest 431 496 30,000  Level Indianapolis Center
09:41AM 37.8269 -87.6994 334° Northwest 433 498 30,000  Level Indianapolis Center
09:43AM 37.9325 -87.7633 334° Northwest 431 496 30,000  Level Indianapolis Center
09:44AM 38.0458 -87.8306 335° Northwest 431 496 30,000  Level Indianapolis Center
09:45AM 38.1567 -87.8950 335° Northwest 433 498 30,000  Level Indianapolis Center
09:46AM 38.2658 -87.9619 334° Northwest 431 496 30,000  Level Indianapolis Center
09:47AM 38.3764 -88.0278 335° Northwest 433 498 30,000  Level Indianapolis Center
09:48AM 38.4869 -88.0933 335° Northwest 435 501 30,000 -180 Level Indianapolis Center
09:49AM 38.5967 -88.1583 335° Northwest 432 497 29,700 -720 Descending Indianapolis Center
09:50AM 38.7064 -88.2264 334° Northwest 434 499 28,600 -1,020 Descending Indianapolis Center
09:51AM 38.8147 -88.2897 336° Northwest 428 493 27,600 -960 Descending Indianapolis Center
09:52AM 38.9200 -88.3536 335° Northwest 417 480 26,700 -900 Descending Indianapolis Center
09:53AM 39.0239 -88.4172 335° Northwest 413 475 25,800 -1,020 Descending Indianapolis Center
09:54AM 39.1494 -88.4928 335° Northwest 412 474 24,700 -1,020 Descending Indianapolis Center
09:55AM 39.2525 -88.5567 334° Northwest 408 470 23,700 -1,440 Descending Indianapolis Center
09:56AM 39.3556 -88.6200 335° Northwest 409 471 21,800 -1,920 Descending Indianapolis Center
09:57AM 39.4606 -88.6839 335° Northwest 412 474 19,800 -1,800 Descending Indianapolis Center
09:58AM 39.6064 -88.7728 335° Northwest 389 448 17,400 -1,620 Descending Indianapolis Center
09:59AM 39.6972 -88.8306 334° Northwest 372 428 15,900 -1,440 Descending Indianapolis Center
10:00AM 39.7781 -88.8906 330° Northwest 365 420 14,600 -1,440 Descending Kansas City Center
10:01AM 39.8583 -88.9625 325° Northwest 354 407 13,000 -1,500 Descending Kansas City Center
10:02AM 39.9069 -89.0061 325° Northwest 354 407 12,200 -660 Descending Chicago Center
10:03AM 39.9850 -89.0758 326° Northwest 345 397 12,000 -120 Descending Chicago Center
10:04AM 40.0617 -89.1456 325° Northwest 337 388 12,000 -540 Level Chicago Center
10:05AM 40.1394 -89.2150 326° Northwest 337 388 11,000 -540 Descending Chicago Center
10:06AM 40.2303 -89.2958 326° Northwest 332 382 11,000  Level Chicago Center
10:07AM 40.3006 -89.3594 325° Northwest 315 362 11,000 -300 Level Chicago Center
10:08AM 40.3544 -89.4361 313° West 292 336 10,500 -1,020 Descending Chicago Center
10:09AM 40.4053 -89.5133 311° West 282 325 9,000 -1,560 Descending Chicago Center
10:10AM 40.4561 -89.5875 312° West 276 318 7,400 -1,440 Descending Chicago Center
10:11AM 40.5061 -89.6594 312° West 269 310 6,100 -720 Descending Chicago Center
10:12AM 40.5536 -89.7319 311° West 264 304 6,000 -300 Descending Chicago Center
10:13AM 40.6008 -89.8003 312° West 255 293 5,500 -780 Descending Chicago Center
10:14AM 40.6392 -89.8589 311° West 224 258 4,500 -1,320 Descending Chicago Center
10:15AM 40.6797 -89.9192 312° West 215 247 2,800 -1,020 Descending Chicago Center
10:16AM 40.7222 -89.9786 313° West 227 261 2,500 -180 Descending Chicago Center
10:17AM 40.7733 -89.9353 33° Northeast 224 258 2,500  Level Chicago Center
10:18AM 40.7575 -89.8628 106° East 185 213 2,600  Climbing Chicago Center
10:19AM 40.7292 -89.8122 126° Southeast 173 199 2,500 -420 Descending Chicago Center
10:20AM 40.7019 -89.7631 126° Southeast 167 192 1,800 -720 Descending Chicago Center
10:21AM 40.6822 -89.7294 128° Southeast 134 154 1,100 -600 Descending Chicago Center
10:23AM 40.6636 -89.6958 126° Southeast 128 147 600 -540 Descending Chicago Center